createdAt,value
2018-12-30T00:01:03.538Z,18.23
2018-12-30T00:03:31.154Z,20.07
2018-12-30T00:05:58.660Z,18.52
2018-12-30T00:08:25.850Z,18.97
2018-12-30T00:10:53.355Z,18.07
2018-12-30T00:13:20.965Z,18.07
2018-12-30T00:15:48.543Z,17.95
2018-12-30T00:18:15.618Z,16.83
2018-12-30T00:20:42.779Z,17.07
2018-12-30T00:23:10.147Z,18.47
2018-12-30T00:25:37.223Z,18.53
2018-12-30T00:28:04.290Z,18.03
2018-12-30T00:30:31.591Z,17.80
2018-12-30T00:32:58.846Z,15.80
2018-12-30T00:35:25.823Z,18.67
2018-12-30T00:37:53.259Z,17.17
2018-12-30T00:40:20.626Z,17.77
2018-12-30T00:42:48.078Z,30.40
2018-12-30T00:45:14.834Z,30.83
2018-12-30T00:47:41.590Z,16.10
2018-12-30T00:50:08.571Z,16.85
2018-12-30T00:52:35.579Z,16.53
2018-12-30T00:55:06.440Z,16.63
2018-12-30T00:57:33.595Z,16.90
2018-12-30T01:00:01.087Z,16.27
2018-12-30T01:02:28.695Z,16.37
2018-12-30T01:04:55.783Z,15.47
2018-12-30T01:07:22.778Z,16.10
2018-12-30T01:09:49.771Z,14.97
2018-12-30T01:12:17.043Z,15.63
2018-12-30T01:14:43.904Z,16.30
2018-12-30T01:17:11.563Z,14.90
2018-12-30T01:19:38.598Z,14.13
2018-12-30T01:22:05.862Z,14.63
2018-12-30T01:24:32.898Z,13.07
2018-12-30T01:27:00.243Z,14.47
2018-12-30T01:29:27.539Z,13.37
2018-12-30T01:31:54.714Z,14.83
2018-12-30T01:34:21.707Z,14.80
2018-12-30T01:36:48.666Z,13.63
2018-12-30T01:39:15.912Z,14.53
2018-12-30T01:41:43.563Z,14.87
2018-12-30T01:44:10.326Z,15.07
2018-12-30T01:46:37.675Z,15.47
2018-12-30T01:49:04.839Z,12.80
2018-12-30T01:51:33.190Z,15.53
2018-12-30T01:54:00.959Z,15.77
2018-12-30T01:56:28.227Z,13.20
2018-12-30T01:58:55.001Z,16.50
2018-12-30T02:01:22.019Z,15.07
2018-12-30T02:03:49.863Z,13.27
2018-12-30T02:06:17.423Z,17.90
2018-12-30T02:08:44.770Z,14.73
2018-12-30T02:11:12.196Z,14.23
2018-12-30T02:13:39.511Z,16.77
2018-12-30T02:16:06.893Z,15.60
2018-12-30T02:18:33.991Z,13.70
2018-12-30T02:21:01.095Z,13.33
2018-12-30T02:23:28.507Z,13.40
2018-12-30T02:25:56.391Z,12.90
2018-12-30T02:28:24.031Z,13.33
2018-12-30T02:30:50.788Z,13.67
2018-12-30T02:33:18.003Z,13.33
2018-12-30T02:35:46.553Z,15.23
2018-12-30T02:38:13.925Z,16.53
2018-12-30T02:40:40.679Z,14.70
2018-12-30T02:43:08.136Z,16.20
2018-12-30T02:45:35.515Z,13.83
2018-12-30T02:48:21.928Z,12.87
2018-12-30T02:50:48.919Z,14.10
2018-12-30T02:53:16.379Z,13.43
2018-12-30T02:55:43.389Z,11.83
2018-12-30T02:58:10.412Z,12.97
2018-12-30T03:00:37.707Z,15.33
2018-12-30T03:03:04.873Z,13.77
2018-12-30T03:05:31.871Z,12.30
2018-12-30T03:07:58.741Z,11.00
2018-12-30T03:10:25.508Z,10.90
2018-12-30T03:12:52.599Z,11.60
2018-12-30T03:15:19.851Z,9.90
2018-12-30T03:17:46.609Z,11.60
2018-12-30T03:20:14.019Z,12.10
2018-12-30T03:22:40.803Z,9.77
2018-12-30T03:25:08.132Z,10.20
2018-12-30T03:27:35.419Z,10.43
2018-12-30T03:30:03.166Z,10.97
2018-12-30T03:32:30.686Z,10.57
2018-12-30T03:34:58.083Z,10.13
2018-12-30T03:37:25.631Z,11.90
2018-12-30T03:39:52.992Z,10.57
2018-12-30T03:42:20.401Z,10.03
2018-12-30T03:44:47.807Z,10.57
2018-12-30T03:47:15.140Z,10.97
2018-12-30T03:49:42.519Z,9.90
2018-12-30T03:52:09.563Z,9.90
2018-12-30T03:54:36.668Z,10.13
2018-12-30T03:57:03.759Z,8.63
2018-12-30T03:59:31.123Z,12.03
2018-12-30T04:01:58.267Z,12.17
2018-12-30T04:04:25.765Z,9.03
2018-12-30T04:06:52.798Z,11.47
2018-12-30T04:09:20.082Z,10.30
2018-12-30T04:11:47.592Z,9.37
2018-12-30T04:14:14.643Z,8.80
2018-12-30T04:16:41.726Z,11.27
2018-12-30T04:19:08.776Z,9.60
2018-12-30T04:21:35.569Z,9.77
2018-12-30T04:24:02.823Z,10.47
2018-12-30T04:26:29.872Z,9.47
2018-12-30T04:28:56.912Z,8.37
2018-12-30T04:31:23.951Z,7.37
2018-12-30T04:33:50.963Z,9.67
2018-12-30T04:36:17.991Z,8.07
2018-12-30T04:38:45.060Z,9.40
2018-12-30T04:41:11.853Z,8.90
2018-12-30T04:43:38.909Z,11.10
2018-12-30T04:46:05.684Z,9.23
2018-12-30T04:48:32.698Z,10.53
2018-12-30T04:50:59.475Z,8.33
2018-12-30T04:53:26.792Z,8.23
2018-12-30T04:55:54.123Z,7.40
2018-12-30T04:58:22.123Z,9.43
2018-12-30T05:00:48.988Z,7.07
2018-12-30T05:03:16.367Z,7.80
2018-12-30T05:05:44.048Z,10.60
2018-12-30T05:08:11.145Z,6.67
2018-12-30T05:10:38.886Z,7.40
2018-12-30T05:13:06.360Z,7.90
2018-12-30T05:15:33.705Z,9.57
2018-12-30T05:18:01.160Z,8.87
2018-12-30T05:20:28.413Z,8.90
2018-12-30T05:22:55.549Z,7.40
2018-12-30T05:25:22.603Z,10.53
2018-12-30T05:27:49.743Z,11.07
2018-12-30T05:30:16.805Z,7.40
2018-12-30T05:32:43.888Z,5.90
2018-12-30T05:35:11.265Z,7.40
2018-12-30T05:37:38.664Z,7.13
2018-12-30T05:40:05.818Z,7.13
2018-12-30T05:42:33.180Z,6.40
2018-12-30T05:45:00.581Z,10.37
2018-12-30T05:47:27.503Z,11.43
2018-12-30T05:49:55.148Z,9.50
2018-12-30T05:52:22.243Z,8.80
2018-12-30T05:54:49.348Z,8.03
2018-12-30T05:57:16.684Z,8.03
2018-12-30T05:59:43.784Z,12.30
2018-12-30T06:02:11.411Z,9.43
2018-12-30T06:04:38.753Z,6.37
2018-12-30T06:07:05.863Z,11.83
2018-12-30T06:09:32.634Z,10.00
2018-12-30T06:12:00.003Z,9.33
2018-12-30T06:14:27.400Z,7.67
2018-12-30T06:16:54.943Z,6.97
2018-12-30T06:19:22.883Z,7.73
2018-12-30T06:21:50.229Z,6.33
2018-12-30T06:24:17.595Z,9.13
2018-12-30T06:26:44.627Z,11.63
2018-12-30T06:29:11.638Z,7.80
2018-12-30T06:31:38.635Z,7.80
2018-12-30T06:34:05.851Z,11.17
2018-12-30T06:36:33.344Z,8.07
2018-12-30T06:39:00.662Z,8.37
2018-12-30T06:41:27.663Z,13.37
2018-12-30T06:43:54.780Z,15.77
2018-12-30T06:46:21.886Z,16.73
2018-12-30T06:48:48.998Z,14.50
2018-12-30T06:51:16.347Z,12.53
2018-12-30T06:53:43.379Z,12.23
2018-12-30T06:56:10.443Z,14.97
2018-12-30T06:58:37.798Z,17.23
2018-12-30T07:01:04.868Z,12.83
2018-12-30T07:03:31.983Z,16.73
2018-12-30T07:05:59.612Z,16.43
2018-12-30T07:08:26.426Z,17.40
2018-12-30T07:10:53.195Z,15.20
2018-12-30T07:13:20.609Z,16.53
2018-12-30T07:15:48.055Z,15.90
2018-12-30T07:18:15.976Z,19.77
2018-12-30T07:20:43.068Z,15.23
2018-12-30T07:23:10.782Z,14.40
2018-12-30T07:25:37.867Z,19.23
2018-12-30T07:28:04.855Z,17.73
2018-12-30T07:30:32.204Z,16.57
2018-12-30T07:32:59.335Z,59.73
2018-12-30T07:35:26.234Z,18.00
2018-12-30T07:37:53.487Z,18.00
2018-12-30T07:40:20.312Z,19.40
2018-12-30T07:42:47.244Z,17.30
2018-12-30T07:45:14.275Z,18.97
2018-12-30T07:47:41.324Z,14.30
2018-12-30T07:50:08.367Z,15.10
2018-12-30T07:52:35.458Z,15.87
2018-12-30T07:55:02.486Z,16.87
2018-12-30T07:57:29.226Z,13.10
2018-12-30T07:59:57.083Z,11.77
2018-12-30T08:02:23.985Z,12.73
2018-12-30T08:04:51.435Z,10.10
2018-12-30T08:07:18.831Z,12.93
2018-12-30T08:09:45.703Z,11.60
2018-12-30T08:12:12.988Z,11.10
2018-12-30T08:14:40.635Z,9.27
2018-12-30T08:17:07.811Z,9.37
2018-12-30T08:19:34.902Z,7.93
2018-12-30T08:22:01.957Z,8.80
2018-12-30T08:24:28.773Z,11.50
2018-12-30T08:26:55.927Z,7.93
2018-12-30T08:29:23.319Z,12.13
2018-12-30T08:31:50.848Z,9.17
2018-12-30T08:34:18.163Z,7.90
2018-12-30T08:36:45.253Z,8.17
2018-12-30T08:39:12.647Z,8.20
2018-12-30T08:41:39.707Z,9.87
2018-12-30T08:44:06.918Z,6.57
2018-12-30T08:46:33.996Z,12.53
2018-12-30T08:49:01.450Z,14.63
2018-12-30T08:51:28.232Z,14.17
2018-12-30T08:53:55.607Z,15.63
2018-12-30T08:56:22.815Z,15.80
2018-12-30T08:58:50.827Z,16.47
2018-12-30T09:01:18.375Z,15.70
2018-12-30T09:03:46.259Z,18.73
2018-12-30T09:06:13.965Z,17.23
2018-12-30T09:08:41.895Z,17.43
2018-12-30T09:11:09.187Z,17.47
2018-12-30T09:13:36.395Z,16.03
2018-12-30T09:16:03.946Z,12.33
2018-12-30T09:18:31.269Z,12.50
2018-12-30T09:20:58.771Z,15.97
2018-12-30T09:23:26.239Z,15.43
2018-12-30T09:25:53.043Z,13.13
2018-12-30T09:28:20.210Z,13.47
2018-12-30T09:30:47.676Z,11.87
2018-12-30T09:33:15.096Z,11.77
2018-12-30T09:35:42.390Z,13.93
2018-12-30T09:38:10.295Z,13.13
2018-12-30T09:40:37.703Z,13.53
2018-12-30T09:43:04.579Z,10.97
2018-12-30T09:45:31.638Z,12.13
2018-12-30T09:47:59.260Z,11.67
2018-12-30T09:50:26.511Z,12.10
2018-12-30T09:52:53.895Z,14.73
2018-12-30T09:55:21.333Z,13.03
2018-12-30T09:57:49.190Z,15.37
2018-12-30T10:00:16.543Z,15.60
2018-12-30T10:02:43.816Z,14.83
2018-12-30T10:05:11.159Z,12.00
2018-12-30T10:07:38.731Z,10.33
2018-12-30T10:10:05.927Z,10.77
2018-12-30T10:12:32.979Z,15.83
2018-12-30T10:15:09.067Z,17.00
2018-12-30T10:17:28.996Z,14.03
2018-12-30T10:19:56.468Z,12.93
2018-12-30T10:22:23.352Z,12.97
2018-12-30T10:24:50.145Z,12.13
2018-12-30T10:27:17.181Z,11.70
2018-12-30T10:29:44.608Z,11.97
2018-12-30T10:32:11.457Z,11.63
2018-12-30T10:34:38.802Z,12.07
2018-12-30T10:37:06.159Z,13.80
2018-12-30T10:39:33.195Z,10.80
2018-12-30T10:42:00.053Z,12.03
2018-12-30T10:44:27.811Z,13.90
2018-12-30T10:46:54.866Z,13.87
2018-12-30T10:49:22.647Z,10.80
2018-12-30T10:51:49.674Z,12.43
2018-12-30T10:54:16.646Z,9.47
2018-12-30T10:56:43.687Z,11.20
2018-12-30T10:59:11.285Z,9.13
2018-12-30T11:01:38.807Z,12.13
2018-12-30T11:04:06.147Z,9.80
2018-12-30T11:06:33.274Z,23.13
2018-12-30T11:09:01.010Z,11.93
2018-12-30T11:11:28.721Z,10.83
2018-12-30T11:13:55.766Z,14.97
2018-12-30T11:16:22.830Z,8.90
2018-12-30T11:18:49.883Z,10.10
2018-12-30T11:21:16.650Z,11.93
2018-12-30T11:23:43.760Z,13.73
2018-12-30T11:26:10.556Z,7.80
2018-12-30T11:28:37.738Z,12.57
2018-12-30T11:31:04.612Z,10.67
2018-12-30T11:33:31.614Z,9.93
2018-12-30T11:35:58.931Z,14.67
2018-12-30T11:38:26.267Z,10.30
2018-12-30T11:40:53.355Z,9.40
2018-12-30T11:43:20.559Z,11.27
2018-12-30T11:45:48.156Z,12.07
2018-12-30T11:48:15.244Z,12.13
2018-12-30T11:50:42.460Z,13.03
2018-12-30T11:53:09.866Z,13.53
2018-12-30T11:55:37.022Z,13.87
2018-12-30T11:58:04.374Z,12.17
2018-12-30T12:00:32.415Z,12.47
2018-12-30T12:02:59.457Z,13.77
2018-12-30T12:05:27.153Z,12.17
2018-12-30T12:07:54.511Z,10.57
2018-12-30T12:10:21.536Z,12.80
2018-12-30T12:12:48.990Z,14.07
2018-12-30T12:15:16.532Z,12.87
2018-12-30T12:17:43.659Z,15.17
2018-12-30T12:20:11.076Z,12.07
2018-12-30T12:22:38.094Z,12.87
2018-12-30T12:25:05.891Z,14.57
2018-12-30T12:27:32.955Z,11.77
2018-12-30T12:30:00.299Z,11.67
2018-12-30T12:32:27.055Z,13.07
2018-12-30T12:34:54.083Z,12.87
2018-12-30T12:37:20.881Z,13.60
2018-12-30T12:39:47.903Z,14.43
2018-12-30T12:42:15.030Z,13.63
2018-12-30T12:44:42.079Z,15.30
2018-12-30T12:47:09.335Z,12.13
2018-12-30T12:49:36.347Z,14.00
2018-12-30T12:52:03.792Z,13.87
2018-12-30T12:54:32.304Z,14.70
2018-12-30T12:56:59.464Z,12.60
2018-12-30T12:59:26.239Z,17.23
2018-12-30T13:01:53.555Z,13.00
2018-12-30T13:04:20.486Z,14.83
2018-12-30T13:06:47.503Z,13.57
2018-12-30T13:09:14.564Z,28.93
2018-12-30T13:11:41.332Z,12.53
2018-12-30T13:14:08.347Z,14.30
2018-12-30T13:16:35.408Z,13.87
2018-12-30T13:19:02.483Z,12.27
2018-12-30T13:21:29.939Z,11.70
2018-12-30T13:23:56.983Z,14.10
2018-12-30T13:26:24.343Z,15.03
2018-12-30T13:28:51.143Z,12.83
2018-12-30T13:31:17.943Z,12.90
2018-12-30T13:33:46.527Z,15.73
2018-12-30T13:36:14.972Z,12.63
2018-12-30T13:38:41.764Z,13.30
2018-12-30T13:41:09.187Z,12.90
2018-12-30T13:43:36.343Z,13.63
2018-12-30T13:46:03.588Z,16.13
2018-12-30T13:48:30.433Z,16.50
2018-12-30T13:50:57.460Z,14.30
2018-12-30T13:53:24.588Z,13.50
2018-12-30T13:55:51.755Z,16.63
2018-12-30T13:58:18.819Z,13.90
2018-12-30T14:00:46.150Z,12.30
2018-12-30T14:03:13.595Z,15.87
2018-12-30T14:05:41.219Z,14.70
2018-12-30T14:08:08.554Z,13.20
2018-12-30T14:10:35.915Z,12.10
2018-12-30T14:13:03.436Z,17.33
2018-12-30T14:15:30.628Z,13.50
2018-12-30T14:17:57.592Z,15.57
2018-12-30T14:20:24.687Z,14.43
2018-12-30T14:22:52.556Z,14.70
2018-12-30T14:25:19.345Z,13.77
2018-12-30T14:27:46.113Z,14.20
2018-12-30T14:30:12.995Z,15.53
2018-12-30T14:32:40.278Z,17.20
2018-12-30T14:35:07.686Z,15.50
2018-12-30T14:37:34.568Z,13.77
2018-12-30T14:40:01.368Z,12.73
2018-12-30T14:42:29.072Z,13.17
2018-12-30T14:44:56.364Z,13.30
2018-12-30T14:47:23.352Z,16.43
2018-12-30T14:49:50.841Z,14.10
2018-12-30T14:52:17.949Z,11.43
2018-12-30T14:54:45.008Z,15.83
2018-12-30T14:57:11.905Z,13.23
2018-12-30T14:59:39.229Z,17.53
2018-12-30T15:02:06.909Z,9.83
2018-12-30T15:04:34.244Z,16.67
2018-12-30T15:07:02.020Z,14.83
2018-12-30T15:09:35.443Z,16.07
2018-12-30T15:11:57.804Z,16.23
2018-12-30T15:14:24.666Z,13.57
2018-12-30T15:16:51.904Z,14.00
2018-12-30T15:19:19.121Z,13.93
2018-12-30T15:21:46.072Z,15.00
2018-12-30T15:24:12.844Z,18.87
2018-12-30T15:26:40.041Z,15.33
2018-12-30T15:29:07.068Z,14.10
2018-12-30T15:31:34.373Z,14.17
2018-12-30T15:34:01.254Z,15.63
2018-12-30T15:36:29.043Z,13.87
2018-12-30T15:38:56.104Z,13.27
2018-12-30T15:41:23.396Z,18.73
2018-12-30T15:43:50.439Z,16.93
2018-12-30T15:46:17.613Z,16.23
2018-12-30T15:48:44.796Z,14.33
2018-12-30T15:51:12.557Z,14.97
2018-12-30T15:53:39.607Z,17.20
2018-12-30T15:56:07.066Z,17.80
2018-12-30T15:58:34.108Z,14.73
2018-12-30T16:01:01.473Z,14.93
2018-12-30T16:03:28.840Z,13.70
2018-12-30T16:05:57.844Z,12.53
2018-12-30T16:08:25.364Z,12.80
2018-12-30T16:10:52.624Z,13.63
2018-12-30T16:13:20.133Z,10.40
2018-12-30T16:15:47.232Z,12.10
2018-12-30T16:18:14.384Z,12.00
2018-12-30T16:20:41.431Z,13.03
2018-12-30T16:23:08.485Z,11.07
2018-12-30T16:25:35.614Z,11.80
2018-12-30T16:28:02.761Z,10.07
2018-12-30T16:30:30.239Z,16.40
2018-12-30T16:32:57.386Z,12.00
2018-12-30T16:35:24.364Z,14.03
2018-12-30T16:37:51.662Z,15.73
2018-12-30T16:40:18.911Z,16.03
2018-12-30T16:42:46.499Z,17.40
2018-12-30T16:45:13.372Z,15.47
2018-12-30T16:47:42.017Z,12.23
2018-12-30T16:50:09.383Z,13.13
2018-12-30T16:52:36.533Z,16.17
2018-12-30T16:55:03.860Z,14.47
2018-12-30T16:57:30.884Z,14.43
2018-12-30T16:59:57.947Z,14.83
2018-12-30T17:02:24.711Z,12.10
2018-12-30T17:04:51.778Z,16.83
2018-12-30T17:07:18.827Z,16.63
2018-12-30T17:09:46.775Z,14.13
2018-12-30T17:12:14.192Z,13.83
2018-12-30T17:14:41.175Z,17.67
2018-12-30T17:17:08.246Z,11.97
2018-12-30T17:19:35.606Z,14.33
2018-12-30T17:22:02.787Z,12.93
2018-12-30T17:24:29.896Z,15.37
2018-12-30T17:26:58.480Z,15.23
2018-12-30T17:29:26.075Z,10.97
2018-12-30T17:31:53.391Z,14.37
2018-12-30T17:34:20.382Z,19.93
2018-12-30T17:36:47.489Z,14.00
2018-12-30T17:39:14.652Z,13.23
2018-12-30T17:41:41.896Z,15.60
2018-12-30T17:44:09.336Z,14.97
2018-12-30T17:46:36.708Z,17.10
2018-12-30T17:49:04.683Z,16.83
2018-12-30T17:51:32.015Z,12.67
2018-12-30T17:53:58.870Z,16.73
2018-12-30T17:56:25.646Z,15.80
2018-12-30T17:58:52.834Z,14.67
2018-12-30T18:01:20.319Z,14.07
2018-12-30T18:03:47.096Z,18.07
2018-12-30T18:06:14.630Z,14.27
2018-12-30T18:08:41.499Z,16.40
2018-12-30T18:11:08.899Z,18.17
2018-12-30T18:13:36.589Z,16.13
2018-12-30T18:16:03.584Z,18.17
2018-12-30T18:18:30.788Z,17.67
2018-12-30T18:20:58.143Z,16.70
2018-12-30T18:23:25.319Z,17.83
2018-12-30T18:25:58.584Z,15.97
2018-12-30T18:28:21.743Z,16.43
2018-12-30T18:30:48.609Z,16.30
2018-12-30T18:33:16.143Z,17.20
2018-12-30T18:35:43.277Z,19.00
2018-12-30T18:38:10.397Z,14.83
2018-12-30T18:40:37.955Z,19.33
2018-12-30T18:43:04.991Z,18.47
2018-12-30T18:45:32.203Z,19.43
2018-12-30T18:47:59.329Z,16.23
2018-12-30T18:50:26.869Z,16.27
2018-12-30T18:52:54.430Z,18.47
2018-12-30T18:55:22.051Z,17.60
2018-12-30T18:57:49.503Z,18.27
2018-12-30T19:00:16.850Z,21.33
2018-12-30T19:02:43.702Z,18.27
2018-12-30T19:05:10.740Z,18.90
2018-12-30T19:07:37.994Z,23.63
2018-12-30T19:10:05.859Z,19.73
2018-12-30T19:12:33.343Z,18.60
2018-12-30T19:15:00.427Z,22.13
2018-12-30T19:17:27.923Z,18.87
2018-12-30T19:19:55.463Z,18.23
2018-12-30T19:22:22.631Z,18.97
2018-12-30T19:24:49.644Z,21.37
2018-12-30T19:27:16.734Z,20.13
2018-12-30T19:29:43.884Z,19.63
2018-12-30T19:32:11.130Z,18.03
2018-12-30T19:34:38.175Z,20.40
2018-12-30T19:37:05.520Z,18.63
2018-12-30T19:39:33.001Z,21.77
2018-12-30T19:42:00.304Z,23.13
2018-12-30T19:44:27.398Z,20.00
2018-12-30T19:46:54.306Z,19.13
2018-12-30T19:49:21.726Z,19.87
2018-12-30T19:51:49.155Z,20.07
2018-12-30T19:54:15.931Z,21.03
2018-12-30T19:56:42.931Z,22.03
2018-12-30T19:59:10.084Z,20.00
2018-12-30T20:01:37.186Z,20.43
2018-12-30T20:04:04.908Z,21.50
2018-12-30T20:06:32.260Z,18.77
2018-12-30T20:08:59.020Z,19.77
2018-12-30T20:11:26.102Z,17.90
2018-12-30T20:13:53.007Z,19.73
2018-12-30T20:16:20.060Z,20.87
2018-12-30T20:18:47.403Z,20.80
2018-12-30T20:21:14.282Z,18.87
2018-12-30T20:23:41.059Z,17.73
2018-12-30T20:26:08.816Z,20.70
2018-12-30T20:28:36.305Z,18.73
2018-12-30T20:31:03.984Z,22.93
2018-12-30T20:33:31.016Z,19.97
2018-12-30T20:35:58.111Z,20.40
2018-12-30T20:38:25.484Z,20.43
2018-12-30T20:40:52.536Z,21.90
2018-12-30T20:43:19.600Z,21.10
2018-12-30T20:45:47.076Z,21.60
2018-12-30T20:48:14.352Z,22.00
2018-12-30T20:50:41.983Z,24.83
2018-12-30T20:53:09.283Z,22.30
2018-12-30T20:55:36.151Z,22.13
2018-12-30T20:58:03.042Z,22.73
2018-12-30T21:00:29.917Z,22.83
2018-12-30T21:02:57.302Z,24.30
2018-12-30T21:05:24.682Z,23.67
2018-12-30T21:07:52.507Z,24.67
2018-12-30T21:10:20.486Z,24.60
2018-12-30T21:12:47.575Z,25.77
2018-12-30T21:15:15.030Z,23.97
2018-12-30T21:17:42.075Z,28.67
2018-12-30T21:20:09.338Z,29.87
2018-12-30T21:22:36.787Z,31.07
2018-12-30T21:25:04.754Z,29.37
2018-12-30T21:27:31.780Z,26.50
2018-12-30T21:29:58.855Z,47.47
2018-12-30T21:32:25.721Z,46.08
2018-12-30T21:34:53.255Z,29.73
2018-12-30T21:37:20.524Z,26.93
2018-12-30T21:39:47.632Z,25.97
2018-12-30T21:42:14.715Z,24.30
2018-12-30T21:44:42.680Z,21.20
2018-12-30T21:47:09.447Z,25.60
2018-12-30T21:49:36.219Z,27.17
2018-12-30T21:52:03.184Z,22.10
2018-12-30T21:54:29.960Z,21.60
2018-12-30T21:56:57.052Z,20.73
2018-12-30T21:59:24.095Z,22.53
2018-12-30T22:01:50.868Z,20.47
2018-12-30T22:04:18.747Z,22.00
2018-12-30T22:06:46.000Z,21.83
2018-12-30T22:09:13.212Z,24.20
2018-12-30T22:11:40.577Z,22.30
2018-12-30T22:14:07.951Z,21.83
2018-12-30T22:16:35.644Z,20.70
2018-12-30T22:19:03.109Z,22.23
2018-12-30T22:21:30.715Z,21.80
2018-12-30T22:23:57.979Z,24.23
2018-12-30T22:26:25.015Z,20.83
2018-12-30T22:28:52.076Z,20.33
2018-12-30T22:31:19.094Z,21.67
2018-12-30T22:33:46.275Z,20.23
2018-12-30T22:36:13.342Z,20.43
2018-12-30T22:38:40.395Z,19.33
2018-12-30T22:41:07.440Z,21.23
2018-12-30T22:43:34.455Z,19.10
2018-12-30T22:46:01.518Z,18.37
2018-12-30T22:48:28.582Z,20.33
2018-12-30T22:50:55.591Z,19.87
2018-12-30T22:53:23.382Z,17.13
2018-12-30T22:55:50.819Z,16.53
2018-12-30T22:58:18.057Z,19.47
2018-12-30T23:01:00.531Z,17.23
2018-12-30T23:03:27.391Z,17.93
2018-12-30T23:05:54.671Z,17.00
2018-12-30T23:08:21.813Z,18.77
2018-12-30T23:10:52.794Z,17.17
2018-12-30T23:13:19.703Z,17.13
2018-12-30T23:15:46.822Z,17.13
2018-12-30T23:18:14.155Z,16.57
2018-12-30T23:20:42.919Z,16.03
2018-12-30T23:23:10.150Z,15.93
2018-12-30T23:25:36.911Z,16.03
2018-12-30T23:28:03.984Z,17.10
2018-12-30T23:30:31.123Z,14.80
2018-12-30T23:32:58.468Z,15.07
2018-12-30T23:35:25.223Z,17.47
2018-12-30T23:37:52.035Z,14.57
2018-12-30T23:40:19.094Z,13.60
2018-12-30T23:42:46.431Z,14.77
2018-12-30T23:45:13.467Z,14.93
2018-12-30T23:47:40.878Z,12.77
2018-12-30T23:50:08.139Z,13.90
2018-12-30T23:52:35.686Z,13.47
2018-12-30T23:55:03.279Z,12.40
2018-12-30T23:57:31.023Z,11.80
2018-12-30T23:59:58.422Z,11.00
